createdAt,value
2023-04-23T00:01:35.420Z,17.56
2023-04-23T00:04:04.467Z,17.52
2023-04-23T00:06:33.136Z,17.49
2023-04-23T00:09:01.707Z,17.43
2023-04-23T00:11:28.945Z,17.42
2023-04-23T00:13:56.317Z,17.45
2023-04-23T00:16:25.055Z,17.48
2023-04-23T00:18:52.194Z,17.34
2023-04-23T00:21:19.338Z,17.25
2023-04-23T00:23:46.938Z,17.26
2023-04-23T00:26:14.459Z,17.28
2023-04-23T00:28:41.518Z,17.31
2023-04-23T00:31:08.674Z,17.23
2023-04-23T00:33:35.799Z,17.06
2023-04-23T00:36:02.952Z,17.06
2023-04-23T00:38:30.316Z,17.01
2023-04-23T00:40:57.441Z,17.01
2023-04-23T00:43:24.618Z,17.02
2023-04-23T00:45:51.796Z,16.98
2023-04-23T00:48:19.098Z,17.01
2023-04-23T00:50:46.761Z,16.93
2023-04-23T00:53:14.038Z,16.92
2023-04-23T00:55:41.267Z,16.93
2023-04-23T00:58:08.829Z,16.87
2023-04-23T01:00:45.072Z,16.86
2023-04-23T01:03:13.350Z,16.85
2023-04-23T01:05:42.230Z,16.82
2023-04-23T01:08:13.709Z,16.78
2023-04-23T01:10:41.782Z,16.76
2023-04-23T01:13:09.401Z,16.79
2023-04-23T01:15:36.451Z,16.74
2023-04-23T01:18:04.772Z,16.58
2023-04-23T01:20:32.206Z,16.52
2023-04-23T01:22:59.508Z,16.50
2023-04-23T01:25:26.835Z,16.42
2023-04-23T01:27:53.965Z,16.46
2023-04-23T01:30:21.989Z,16.45
2023-04-23T01:32:49.465Z,16.36
2023-04-23T01:35:16.722Z,16.36
2023-04-23T01:37:45.017Z,16.35
2023-04-23T01:40:12.421Z,16.29
2023-04-23T01:42:40.089Z,16.22
2023-04-23T01:45:08.231Z,16.27
2023-04-23T01:47:36.157Z,16.28
2023-04-23T01:50:05.171Z,16.23
2023-04-23T01:52:32.252Z,16.20
2023-04-23T01:54:59.330Z,16.08
2023-04-23T01:57:27.152Z,16.11
2023-04-23T02:00:08.966Z,16.09
2023-04-23T02:02:36.477Z,16.04
2023-04-23T02:05:07.365Z,16.07
2023-04-23T02:07:34.911Z,16.01
2023-04-23T02:10:02.798Z,16.07
2023-04-23T02:12:29.889Z,16.07
2023-04-23T02:14:56.917Z,16.06
2023-04-23T02:17:24.330Z,16.02
2023-04-23T02:19:51.729Z,15.97
2023-04-23T02:22:19.156Z,15.88
2023-04-23T02:24:47.339Z,15.87
2023-04-23T02:27:14.485Z,15.87
2023-04-23T02:29:41.660Z,15.86
2023-04-23T02:32:09.310Z,15.79
2023-04-23T02:34:37.548Z,15.74
2023-04-23T02:37:05.264Z,15.72
2023-04-23T02:39:32.623Z,15.70
2023-04-23T02:41:59.674Z,15.74
2023-04-23T02:44:26.683Z,15.64
2023-04-23T02:46:53.755Z,15.61
2023-04-23T02:49:20.962Z,15.54
2023-04-23T02:51:48.475Z,15.52
2023-04-23T02:54:15.865Z,15.50
2023-04-23T02:56:42.946Z,15.45
2023-04-23T02:59:10.574Z,15.46
2023-04-23T03:01:37.656Z,15.39
2023-04-23T03:04:04.944Z,15.32
2023-04-23T03:06:34.530Z,15.27
2023-04-23T03:09:01.692Z,15.36
2023-04-23T03:11:28.884Z,15.38
2023-04-23T03:13:57.220Z,15.29
2023-04-23T03:16:24.671Z,15.23
2023-04-23T03:18:51.796Z,15.26
2023-04-23T03:21:21.437Z,15.23
2023-04-23T03:23:49.785Z,15.21
2023-04-23T03:26:17.020Z,15.13
2023-04-23T03:28:46.372Z,15.19
2023-04-23T03:31:14.172Z,15.16
2023-04-23T03:33:41.320Z,15.11
2023-04-23T03:36:08.801Z,15.18
2023-04-23T03:38:37.931Z,15.10
2023-04-23T03:41:06.935Z,15.06
2023-04-23T03:43:34.540Z,15.03
2023-04-23T03:46:02.665Z,15.04
2023-04-23T03:48:30.855Z,15.00
2023-04-23T03:50:58.774Z,15.01
2023-04-23T03:53:26.042Z,14.71
2023-04-23T03:55:53.095Z,14.26
2023-04-23T03:58:20.362Z,13.84
2023-04-23T04:00:47.503Z,13.54
2023-04-23T04:03:15.111Z,13.37
2023-04-23T04:05:42.559Z,13.26
2023-04-23T04:08:09.887Z,13.05
2023-04-23T04:10:37.047Z,13.01
2023-04-23T04:13:04.218Z,12.89
2023-04-23T04:15:32.360Z,12.79
2023-04-23T04:18:01.182Z,12.69
2023-04-23T04:20:31.115Z,12.56
2023-04-23T04:22:58.242Z,12.48
2023-04-23T04:25:25.364Z,12.37
2023-04-23T04:27:52.561Z,12.29
2023-04-23T04:30:19.740Z,12.25
2023-04-23T04:32:47.398Z,12.27
2023-04-23T04:35:14.610Z,12.11
2023-04-23T04:37:43.990Z,12.08
2023-04-23T04:40:11.634Z,12.07
2023-04-23T04:42:39.185Z,12.05
2023-04-23T04:45:08.713Z,12.04
2023-04-23T04:47:36.596Z,11.96
2023-04-23T04:50:05.426Z,11.85
2023-04-23T04:52:32.579Z,11.91
2023-04-23T04:54:59.682Z,11.83
2023-04-23T04:57:26.725Z,11.85
2023-04-23T04:59:54.042Z,11.81
2023-04-23T05:02:23.285Z,11.82
2023-04-23T05:04:50.735Z,11.85
2023-04-23T05:07:18.226Z,11.72
2023-04-23T05:09:45.433Z,11.64
2023-04-23T05:12:12.561Z,11.63
2023-04-23T05:14:40.094Z,11.57
2023-04-23T05:17:07.814Z,11.59
2023-04-23T05:19:34.879Z,11.54
2023-04-23T05:22:03.700Z,11.43
2023-04-23T05:24:30.833Z,11.27
2023-04-23T05:26:57.935Z,11.29
2023-04-23T05:29:25.279Z,11.28
2023-04-23T05:31:52.478Z,11.32
2023-04-23T05:34:19.670Z,11.31
2023-04-23T05:36:46.936Z,11.28
2023-04-23T05:39:14.066Z,11.36
2023-04-23T05:41:41.212Z,11.28
2023-04-23T05:44:08.384Z,11.30
2023-04-23T05:46:35.897Z,11.31
2023-04-23T05:49:03.084Z,11.33
2023-04-23T05:51:30.340Z,11.22
2023-04-23T05:53:57.492Z,11.34
2023-04-23T05:56:24.656Z,11.28
2023-04-23T05:58:52.362Z,11.30
2023-04-23T06:01:19.594Z,11.26
2023-04-23T06:03:47.203Z,11.27
2023-04-23T06:06:14.763Z,11.28
2023-04-23T06:08:41.885Z,11.46
2023-04-23T06:11:09.008Z,11.33
2023-04-23T06:13:43.483Z,11.38
2023-04-23T06:16:11.037Z,11.46
2023-04-23T06:18:39.492Z,11.58
2023-04-23T06:21:07.025Z,11.68
2023-04-23T06:23:35.643Z,11.76
2023-04-23T06:26:04.318Z,11.63
2023-04-23T06:28:31.625Z,11.71
2023-04-23T06:30:58.682Z,11.85
2023-04-23T06:33:25.889Z,11.87
2023-04-23T06:35:53.165Z,11.88
2023-04-23T06:38:22.944Z,11.85
2023-04-23T06:40:50.114Z,11.97
2023-04-23T06:43:17.485Z,11.97
2023-04-23T06:45:44.824Z,12.03
2023-04-23T06:48:11.971Z,11.99
2023-04-23T06:50:40.451Z,12.09
2023-04-23T06:53:07.633Z,12.00
2023-04-23T06:55:35.022Z,11.96
2023-04-23T06:58:02.229Z,11.95
2023-04-23T07:00:29.537Z,12.05
2023-04-23T07:02:57.039Z,11.99
2023-04-23T07:05:24.350Z,11.86
2023-04-23T07:07:51.512Z,12.01
2023-04-23T07:10:19.184Z,12.07
2023-04-23T07:12:46.392Z,12.20
2023-04-23T07:15:13.841Z,12.29
2023-04-23T07:17:41.466Z,12.39
2023-04-23T07:20:09.307Z,12.44
2023-04-23T07:22:36.606Z,12.37
2023-04-23T07:25:05.342Z,12.10
2023-04-23T07:27:32.438Z,12.30
2023-04-23T07:29:59.631Z,12.54
2023-04-23T07:32:28.091Z,12.67
2023-04-23T07:34:58.143Z,12.53
2023-04-23T07:37:25.356Z,12.34
2023-04-23T07:39:54.026Z,12.25
2023-04-23T07:42:21.216Z,12.26
2023-04-23T07:44:52.389Z,12.36
2023-04-23T07:47:20.063Z,12.48
2023-04-23T07:49:47.233Z,12.58
2023-04-23T07:52:15.577Z,12.50
2023-04-23T07:54:43.268Z,12.33
2023-04-23T07:57:11.678Z,12.18
2023-04-23T07:59:41.830Z,12.34
2023-04-23T08:02:09.228Z,12.59
2023-04-23T08:04:36.514Z,12.78
2023-04-23T08:07:03.835Z,12.78
2023-04-23T08:09:30.834Z,12.62
2023-04-23T08:11:58.366Z,12.56
2023-04-23T08:14:26.191Z,12.74
2023-04-23T08:16:53.366Z,12.81
2023-04-23T08:19:20.646Z,12.87
2023-04-23T08:21:49.002Z,13.03
2023-04-23T08:24:16.157Z,13.04
2023-04-23T08:26:43.431Z,12.86
2023-04-23T08:29:11.702Z,13.01
2023-04-23T08:31:39.120Z,13.11
2023-04-23T08:34:06.624Z,13.17
2023-04-23T08:36:33.795Z,13.35
2023-04-23T08:39:01.731Z,13.35
2023-04-23T08:41:35.105Z,13.52
2023-04-23T08:44:21.764Z,13.74
2023-04-23T08:46:49.380Z,13.90
2023-04-23T08:49:18.690Z,13.99
2023-04-23T08:51:50.063Z,13.89
2023-04-23T08:54:22.789Z,14.07
2023-04-23T08:56:51.717Z,13.98
2023-04-23T08:59:21.215Z,14.06
2023-04-23T09:01:49.402Z,13.93
2023-04-23T09:04:17.327Z,14.08
2023-04-23T09:06:44.931Z,14.17
2023-04-23T09:09:16.540Z,14.25
2023-04-23T09:11:44.415Z,14.32
2023-04-23T09:14:12.838Z,14.36
2023-04-23T09:16:42.630Z,14.55
2023-04-23T09:19:11.457Z,14.71
2023-04-23T09:21:42.670Z,14.78
2023-04-23T09:24:14.752Z,14.72
2023-04-23T09:26:47.216Z,14.91
2023-04-23T09:29:23.487Z,14.90
2023-04-23T09:32:10.308Z,14.94
2023-04-23T09:34:37.841Z,14.73
2023-04-23T09:37:08.246Z,14.60
2023-04-23T09:39:36.336Z,14.57
2023-04-23T09:42:06.032Z,14.55
2023-04-23T09:44:34.201Z,14.52
2023-04-23T09:47:09.933Z,14.54
2023-04-23T09:49:50.582Z,14.55
2023-04-23T09:52:18.631Z,14.73
2023-04-23T09:54:46.689Z,14.79
2023-04-23T09:57:14.042Z,14.71
2023-04-23T09:59:48.904Z,14.90
2023-04-23T10:02:20.549Z,15.13
2023-04-23T10:04:56.345Z,15.34
2023-04-23T10:07:29.293Z,15.56
2023-04-23T10:09:56.326Z,15.75
2023-04-23T10:14:57.425Z,15.75
2023-04-23T10:17:24.889Z,15.72
2023-04-23T10:19:52.834Z,15.83
2023-04-23T10:22:21.901Z,16.10
2023-04-23T10:24:56.370Z,16.39
2023-04-23T10:27:36.716Z,16.51
2023-04-23T10:30:14.799Z,16.99
2023-04-23T10:32:42.442Z,17.47
2023-04-23T10:35:10.337Z,17.48
2023-04-23T10:37:38.889Z,17.56
2023-04-23T10:40:14.033Z,17.50
2023-04-23T10:42:42.846Z,17.82
2023-04-23T10:45:23.978Z,18.21
2023-04-23T10:47:55.419Z,18.63
2023-04-23T10:50:26.963Z,18.96
2023-04-23T10:52:54.740Z,18.94
2023-04-23T10:55:24.528Z,18.93
2023-04-23T10:58:08.675Z,19.26
2023-04-23T11:00:42.029Z,19.27
2023-04-23T11:03:30.632Z,19.59
2023-04-23T11:06:02.503Z,19.63
2023-04-23T11:08:32.643Z,19.92
2023-04-23T11:11:06.831Z,20.10
2023-04-23T11:13:34.331Z,20.33
2023-04-23T11:16:18.758Z,20.54
2023-04-23T11:19:19.816Z,20.76
2023-04-23T11:21:59.532Z,19.83
2023-04-23T11:24:43.265Z,20.03
2023-04-23T11:27:13.836Z,20.18
2023-04-23T11:29:42.977Z,20.43
2023-04-23T11:32:13.179Z,20.69
2023-04-23T11:34:43.487Z,20.56
2023-04-23T11:37:12.160Z,21.13
2023-04-23T11:39:44.798Z,21.23
2023-04-23T11:42:16.144Z,21.49
2023-04-23T11:44:45.020Z,21.24
2023-04-23T11:47:13.930Z,21.72
2023-04-23T11:49:43.178Z,22.46
2023-04-23T11:52:12.144Z,22.71
2023-04-23T11:54:42.568Z,22.89
2023-04-23T11:57:10.620Z,22.57
2023-04-23T11:59:38.003Z,23.37
2023-04-23T12:02:05.557Z,23.14
2023-04-23T12:04:34.291Z,23.48
2023-04-23T12:07:05.775Z,23.76
2023-04-23T12:09:38.287Z,23.71
2023-04-23T12:12:06.145Z,23.87
2023-04-23T12:14:33.721Z,24.37
2023-04-23T12:17:10.956Z,24.30
2023-04-23T12:19:38.482Z,24.65
2023-04-23T12:22:08.198Z,24.59
2023-04-23T12:24:51.724Z,24.12
2023-04-23T12:27:21.455Z,23.93
2023-04-23T12:29:50.767Z,24.37
2023-04-23T12:32:19.363Z,25.39
2023-04-23T12:34:54.451Z,25.46
2023-04-23T12:37:30.129Z,25.20
2023-04-23T12:39:59.433Z,25.27
2023-04-23T12:42:32.748Z,25.77
2023-04-23T12:45:10.117Z,26.19
2023-04-23T12:47:37.324Z,25.90
2023-04-23T12:50:05.726Z,25.19
2023-04-23T12:52:33.095Z,25.02
2023-04-23T12:55:01.628Z,25.56
2023-04-23T12:57:29.108Z,25.81
2023-04-23T12:59:56.470Z,25.90
2023-04-23T13:02:25.055Z,26.10
2023-04-23T13:04:54.529Z,26.17
2023-04-23T13:07:21.924Z,25.62
2023-04-23T13:09:49.027Z,25.51
2023-04-23T13:12:16.471Z,26.31
2023-04-23T13:14:43.894Z,25.42
2023-04-23T13:17:11.102Z,25.81
2023-04-23T13:19:39.996Z,26.26
2023-04-23T13:22:07.440Z,26.63
2023-04-23T13:24:35.518Z,27.33
2023-04-23T13:27:03.652Z,26.07
2023-04-23T13:29:30.804Z,25.18
2023-04-23T13:31:58.523Z,24.35
2023-04-23T13:34:26.389Z,25.26
2023-04-23T13:36:53.507Z,25.15
2023-04-23T13:39:21.490Z,25.29
2023-04-23T13:41:59.131Z,25.74
2023-04-23T13:44:32.770Z,25.75
2023-04-23T13:47:00.091Z,25.93
2023-04-23T13:49:27.567Z,26.40
2023-04-23T13:51:58.934Z,27.67
2023-04-23T13:54:27.946Z,27.72
2023-04-23T13:56:59.466Z,28.09
2023-04-23T13:59:27.053Z,27.55
2023-04-23T14:01:54.516Z,26.77
2023-04-23T14:04:25.459Z,26.22
2023-04-23T14:06:56.010Z,27.00
2023-04-23T14:09:23.793Z,28.38
2023-04-23T14:11:50.978Z,28.21
2023-04-23T14:14:18.646Z,28.21
2023-04-23T14:16:48.700Z,29.79
2023-04-23T14:19:18.228Z,30.08
2023-04-23T14:21:45.686Z,29.93
2023-04-23T14:24:27.608Z,29.03
2023-04-23T14:26:54.940Z,28.61
2023-04-23T14:29:29.567Z,29.01
2023-04-23T14:31:56.973Z,28.66
2023-04-23T14:34:24.332Z,28.85
2023-04-23T14:36:53.239Z,28.69
2023-04-23T14:39:22.813Z,28.42
2023-04-23T14:41:50.696Z,27.26
2023-04-23T14:44:18.443Z,26.78
2023-04-23T14:46:45.964Z,26.76
2023-04-23T14:49:13.340Z,25.82
2023-04-23T14:51:41.359Z,25.23
2023-04-23T14:54:08.545Z,24.54
2023-04-23T14:56:35.610Z,23.94
2023-04-23T14:59:06.853Z,23.20
2023-04-23T15:01:34.052Z,23.00
2023-04-23T15:04:01.671Z,22.98
2023-04-23T15:06:29.126Z,22.49
2023-04-23T15:08:56.327Z,22.53
2023-04-23T15:11:23.606Z,22.34
2023-04-23T15:14:07.981Z,22.13
2023-04-23T15:19:07.565Z,22.09
2023-04-23T15:21:35.351Z,21.89
2023-04-23T15:24:02.808Z,21.58
2023-04-23T15:26:32.779Z,20.76
2023-04-23T15:29:00.227Z,20.42
2023-04-23T15:31:27.357Z,20.63
2023-04-23T15:33:54.558Z,20.79
2023-04-23T15:36:22.048Z,21.10
2023-04-23T15:38:50.558Z,21.14
2023-04-23T15:41:17.810Z,20.97
2023-04-23T15:43:44.917Z,21.47
2023-04-23T15:46:12.091Z,21.78
2023-04-23T15:48:39.257Z,22.03
2023-04-23T15:51:06.656Z,21.68
2023-04-23T15:53:33.822Z,21.42
2023-04-23T15:56:02.102Z,21.81
2023-04-23T15:58:29.263Z,21.82
2023-04-23T16:00:56.493Z,21.77
2023-04-23T16:03:23.794Z,21.83
2023-04-23T16:05:52.383Z,21.77
2023-04-23T16:08:19.771Z,21.55
2023-04-23T16:10:47.386Z,21.48
2023-04-23T16:13:15.495Z,21.24
2023-04-23T16:15:42.860Z,21.07
2023-04-23T16:18:10.244Z,20.77
2023-04-23T16:20:37.432Z,21.00
2023-04-23T16:23:06.893Z,21.26
2023-04-23T16:25:34.315Z,21.39
2023-04-23T16:28:01.802Z,21.24
2023-04-23T16:30:28.943Z,20.98
2023-04-23T16:32:56.392Z,20.81
2023-04-23T16:35:23.499Z,20.64
2023-04-23T16:37:51.334Z,20.30
2023-04-23T16:40:21.593Z,19.85
2023-04-23T16:42:49.440Z,19.92
2023-04-23T16:45:16.681Z,19.85
2023-04-23T16:47:44.603Z,19.66
2023-04-23T16:50:12.320Z,19.41
2023-04-23T16:52:40.061Z,19.43
2023-04-23T16:55:07.635Z,19.17
2023-04-23T16:57:36.495Z,19.17
2023-04-23T17:00:05.162Z,18.75
2023-04-23T17:02:32.749Z,17.97
2023-04-23T17:05:00.209Z,17.40
2023-04-23T17:07:27.292Z,17.11
2023-04-23T17:09:54.339Z,16.74
2023-04-23T17:12:22.689Z,16.52
2023-04-23T17:14:49.898Z,16.25
2023-04-23T17:17:18.590Z,16.04
2023-04-23T17:19:46.002Z,15.93
2023-04-23T17:22:13.444Z,15.78
2023-04-23T17:24:41.008Z,15.70
2023-04-23T17:27:08.298Z,15.63
2023-04-23T17:29:35.788Z,15.56
2023-04-23T17:32:06.709Z,15.41
2023-04-23T17:34:39.942Z,15.05
2023-04-23T17:37:08.423Z,15.01
2023-04-23T17:39:35.648Z,15.02
2023-04-23T17:42:03.014Z,15.07
2023-04-23T17:44:30.408Z,15.07
2023-04-23T17:46:58.023Z,15.11
2023-04-23T17:49:25.355Z,14.99
2023-04-23T17:51:53.105Z,14.93
2023-04-23T17:54:20.300Z,15.00
2023-04-23T17:56:47.575Z,15.16
2023-04-23T17:59:15.998Z,15.29
2023-04-23T18:01:43.646Z,15.29
2023-04-23T18:04:11.421Z,15.37
2023-04-23T18:06:38.713Z,15.42
2023-04-23T18:09:06.018Z,15.43
2023-04-23T18:11:33.672Z,15.47
2023-04-23T18:14:01.459Z,15.50
2023-04-23T18:16:29.254Z,15.47
2023-04-23T18:18:56.378Z,15.42
2023-04-23T18:21:24.163Z,15.40
2023-04-23T18:23:51.567Z,15.35
2023-04-23T18:26:19.312Z,15.26
2023-04-23T18:28:46.513Z,15.31
2023-04-23T18:31:13.944Z,15.34
2023-04-23T18:33:49.410Z,15.31
2023-04-23T18:36:19.480Z,15.27
2023-04-23T18:38:47.323Z,15.27
2023-04-23T18:41:15.342Z,15.16
2023-04-23T18:43:43.477Z,15.13
2023-04-23T18:46:10.718Z,15.13
2023-04-23T18:48:51.989Z,15.10
2023-04-23T18:51:46.081Z,15.07
2023-04-23T18:54:15.082Z,14.98
2023-04-23T18:56:42.331Z,14.99
2023-04-23T18:59:09.771Z,14.84
2023-04-23T19:01:37.242Z,14.85
2023-04-23T19:04:05.303Z,14.78
2023-04-23T19:06:33.014Z,14.87
2023-04-23T19:09:00.363Z,14.80
2023-04-23T19:11:30.253Z,14.75
2023-04-23T19:13:57.404Z,14.76
2023-04-23T19:16:24.671Z,14.66
2023-04-23T19:18:52.101Z,14.61
2023-04-23T19:21:19.779Z,14.54
2023-04-23T19:23:47.626Z,14.58
2023-04-23T19:26:15.056Z,14.59
2023-04-23T19:28:42.215Z,14.56
2023-04-23T19:31:09.930Z,14.57
2023-04-23T19:33:37.169Z,14.65
2023-04-23T19:36:05.191Z,14.59
2023-04-23T19:38:32.650Z,14.65
2023-04-23T19:41:00.446Z,14.59
2023-04-23T19:43:27.601Z,14.66
2023-04-23T19:45:54.914Z,14.64
2023-04-23T19:48:22.018Z,14.70
2023-04-23T19:50:49.702Z,14.72
2023-04-23T19:53:17.380Z,14.68
2023-04-23T19:55:44.609Z,14.50
2023-04-23T19:58:12.932Z,14.54
2023-04-23T20:00:41.599Z,14.50
2023-04-23T20:03:10.256Z,14.52
2023-04-23T20:05:38.123Z,14.52
2023-04-23T20:08:12.265Z,14.52
2023-04-23T20:10:39.549Z,14.52
2023-04-23T20:13:06.985Z,14.43
2023-04-23T20:15:34.290Z,14.42
2023-04-23T20:18:01.993Z,14.40
2023-04-23T20:20:29.517Z,14.37
2023-04-23T20:22:56.611Z,14.37
2023-04-23T20:25:25.925Z,14.32
2023-04-23T20:27:56.371Z,14.29
2023-04-23T20:30:23.645Z,14.27
2023-04-23T20:32:58.343Z,14.16
2023-04-23T20:35:25.502Z,14.06
2023-04-23T20:37:55.112Z,14.04
2023-04-23T20:40:22.725Z,13.97
2023-04-23T20:42:51.720Z,13.91
2023-04-23T20:45:19.827Z,13.94
2023-04-23T20:47:47.478Z,13.97
2023-04-23T20:50:15.072Z,13.94
2023-04-23T20:52:42.437Z,13.97
2023-04-23T20:55:10.463Z,13.95
2023-04-23T20:57:37.972Z,13.93
2023-04-23T21:00:12.032Z,13.91
2023-04-23T21:02:39.429Z,13.94
2023-04-23T21:05:07.820Z,13.93
2023-04-23T21:07:36.639Z,13.92
2023-04-23T21:10:05.006Z,14.00
2023-04-23T21:12:32.797Z,13.98
2023-04-23T21:15:02.336Z,14.01
2023-04-23T21:17:37.408Z,13.99
2023-04-23T21:20:05.993Z,13.99
2023-04-23T21:22:33.198Z,13.98
2023-04-23T21:25:00.340Z,14.00
2023-04-23T21:27:27.633Z,14.04
2023-04-23T21:29:54.831Z,14.03
2023-04-23T21:32:22.210Z,13.98
2023-04-23T21:34:49.511Z,14.08
2023-04-23T21:37:16.691Z,14.01
2023-04-23T21:39:44.124Z,14.06
2023-04-23T21:42:11.692Z,13.99
2023-04-23T21:44:39.862Z,14.05
2023-04-23T21:47:07.348Z,14.05
2023-04-23T21:49:34.734Z,13.97
2023-04-23T21:52:02.368Z,14.00
2023-04-23T21:54:29.511Z,14.05
2023-04-23T21:56:58.494Z,14.18
2023-04-23T21:59:25.979Z,14.11
2023-04-23T22:01:56.282Z,14.09
2023-04-23T22:04:23.486Z,14.03
2023-04-23T22:06:51.591Z,14.09
2023-04-23T22:09:19.340Z,14.12
2023-04-23T22:12:01.139Z,14.06
2023-04-23T22:14:29.329Z,14.09
2023-04-23T22:16:58.646Z,14.10
2023-04-23T22:19:26.099Z,14.07
2023-04-23T22:21:53.699Z,14.10
2023-04-23T22:24:20.790Z,14.11
2023-04-23T22:26:48.831Z,14.12
2023-04-23T22:29:16.305Z,14.07
2023-04-23T22:31:43.928Z,14.08
2023-04-23T22:34:11.387Z,14.06
2023-04-23T22:36:40.849Z,14.06
2023-04-23T22:39:10.936Z,14.05
2023-04-23T22:41:40.204Z,14.03
2023-04-23T22:44:07.501Z,13.89
2023-04-23T22:46:35.237Z,13.85
2023-04-23T22:49:03.225Z,13.88
2023-04-23T22:51:33.403Z,13.82
2023-04-23T22:54:00.665Z,13.89
2023-04-23T22:56:27.980Z,13.84
2023-04-23T22:58:55.107Z,13.90
2023-04-23T23:01:22.767Z,13.94
2023-04-23T23:03:50.026Z,13.93
2023-04-23T23:06:17.351Z,13.82
2023-04-23T23:08:44.524Z,13.82
2023-04-23T23:11:11.770Z,13.91
2023-04-23T23:13:40.578Z,13.81
2023-04-23T23:16:08.323Z,13.83
2023-04-23T23:18:35.522Z,13.92
2023-04-23T23:21:03.262Z,13.89
2023-04-23T23:23:30.653Z,13.94
2023-04-23T23:25:59.953Z,14.02
2023-04-23T23:28:27.811Z,13.94
2023-04-23T23:30:55.627Z,13.85
2023-04-23T23:33:23.202Z,13.99
2023-04-23T23:35:50.880Z,13.99
2023-04-23T23:38:19.504Z,14.00
2023-04-23T23:40:46.568Z,13.95
2023-04-23T23:43:14.677Z,13.99
2023-04-23T23:45:41.766Z,14.01
2023-04-23T23:48:08.848Z,13.99
2023-04-23T23:50:36.318Z,13.94
2023-04-23T23:53:03.578Z,13.79
2023-04-23T23:55:30.798Z,13.91
2023-04-23T23:57:57.973Z,13.79
